Time;durP1;ratioP1;P1;durP2;ratioP2;P2;SDS_P1;SDS_P2;PMS_P1;PMS_P2;Temp;Humidity;BMP_temperature;BMP_pressure;BME280_temperature;BME280_humidity;BME280_pressure;Samples;Min_cycle;Max_cycle;Signal;HPM_P1;HPM_P2
2021/01/19 00:01:52;;;;;;;;;22.50;18.75;;;;;-143.91;100.00;62633.25;6118415;22;13397;-76
2021/01/19 00:04:19;;;;;;;;;28.50;23.00;;;;;-143.91;100.00;62633.25;6088724;22;13155;-76
2021/01/19 00:06:45;;;;;;;;;19.50;19.25;;;;;-143.91;100.00;62633.25;6055673;22;12934;-76
2021/01/19 00:09:12;;;;;;;;;25.00;21.00;;;;;-143.91;100.00;62633.25;6119290;22;13519;-76
2021/01/19 00:11:39;;;;;;;;;27.75;20.75;;;;;-143.91;100.00;62633.25;6121147;22;13319;-76
2021/01/19 00:14:05;;;;;;;;;29.25;24.50;;;;;-143.91;100.00;62633.25;6222492;22;13574;-76
2021/01/19 00:16:32;;;;;;;;;22.50;20.75;;;;;-143.91;100.00;62633.25;6227556;22;12846;-76
2021/01/19 00:18:59;;;;;;;;;24.50;20.50;;;;;-143.91;100.00;62633.25;6124823;22;13548;-76
2021/01/19 00:21:25;;;;;;;;;30.25;20.75;;;;;-143.91;100.00;62633.25;6124767;22;12604;-76
2021/01/19 00:23:52;;;;;;;;;23.75;19.75;;;;;-143.91;100.00;62633.25;6121683;22;14793;-76
2021/01/19 00:26:19;;;;;;;;;22.75;21.00;;;;;-143.91;100.00;62633.25;6122069;22;13513;-76
2021/01/19 00:28:45;;;;;;;;;27.00;23.25;;;;;-143.91;100.00;62633.25;6122698;22;12764;-76
2021/01/19 00:31:12;;;;;;;;;26.25;23.00;;;;;-143.91;100.00;62633.25;6120998;22;12950;-76
2021/01/19 00:33:39;;;;;;;;;26.00;20.00;;;;;-143.91;100.00;62633.25;6121717;22;14535;-76
2021/01/19 00:36:06;;;;;;;;;26.50;21.00;;;;;-143.91;100.00;62633.25;6123994;22;12936;-76
2021/01/19 00:38:33;;;;;;;;;25.00;22.50;;;;;-143.91;100.00;62633.25;6097527;22;12511;-76
2021/01/19 00:40:59;;;;;;;;;25.75;22.00;;;;;-143.91;100.00;62633.25;6098413;22;12515;-76
2021/01/19 00:43:26;;;;;;;;;14.75;14.00;;;;;-143.91;100.00;62633.25;6126423;22;12927;-76
2021/01/19 00:45:53;;;;;;;;;21.75;18.50;;;;;-143.91;100.00;62633.25;6122840;22;13441;-76
2021/01/19 00:48:20;;;;;;;;;23.00;21.00;;;;;-143.91;100.00;62633.25;6120593;22;12748;-76
2021/01/19 00:50:46;;;;;;;;;21.50;17.75;;;;;-143.91;100.00;62633.25;6122924;22;12732;-76
2021/01/19 00:53:13;;;;;;;;;21.50;20.25;;;;;-143.91;100.00;62633.25;6122912;22;13444;-76
2021/01/19 00:55:40;;;;;;;;;21.75;18.50;;;;;-143.91;100.00;62633.25;6125430;22;12638;-76
2021/01/19 00:58:07;;;;;;;;;26.25;20.00;;;;;-143.91;100.00;62633.25;6119833;22;13709;-76
2021/01/19 01:00:34;;;;;;;;;24.75;20.00;;;;;-143.91;100.00;62633.25;6116007;22;13527;-76
2021/01/19 01:03:01;;;;;;;;;19.25;16.75;;;;;-143.91;100.00;62633.25;6126320;22;14522;-76
2021/01/19 01:05:27;;;;;;;;;26.25;19.75;;;;;-143.91;100.00;62633.25;6122136;22;13395;-76
2021/01/19 01:07:54;;;;;;;;;26.25;21.25;;;;;-143.91;100.00;62633.25;6116000;22;15944;-76
2021/01/19 01:10:21;;;;;;;;;24.00;20.00;;;;;-143.91;100.00;62633.25;6124144;22;13276;-76
2021/01/19 01:12:47;;;;;;;;;22.75;19.75;;;;;-143.91;100.00;62633.25;6121374;22;13258;-76
2021/01/19 01:15:17;;;;;;;;;22.25;18.25;;;;;-143.91;100.00;62633.25;6122580;22;13185;-76
2021/01/19 01:17:44;;;;;;;;;21.50;18.00;;;;;-143.91;100.00;62633.25;6127000;22;12352;-76
2021/01/19 01:20:11;;;;;;;;;19.75;17.00;;;;;-143.91;100.00;62633.25;6226956;22;13108;-76
2021/01/19 01:22:44;;;;;;;;;27.00;19.75;;;;;-143.91;100.00;62633.25;6119662;22;13299;-76
2021/01/19 01:25:12;;;;;;;;;18.75;15.75;;;;;-143.91;100.00;62633.25;6121054;22;13326;-76
2021/01/19 01:27:39;;;;;;;;;20.50;16.75;;;;;-143.91;100.00;62633.25;6122078;22;12674;-76
2021/01/19 01:30:07;;;;;;;;;21.50;17.25;;;;;-143.91;100.00;62633.25;6116572;22;12402;-76
2021/01/19 01:32:37;;;;;;;;;18.50;13.00;;;;;-143.91;100.00;62633.25;6122975;22;13295;-76
2021/01/19 01:35:04;;;;;;;;;23.25;20.75;;;;;-143.91;100.00;62633.25;6120751;22;12978;-76
2021/01/19 01:37:31;;;;;;;;;21.25;16.00;;;;;-143.91;100.00;62633.25;6114789;22;12215;-76
2021/01/19 01:39:57;;;;;;;;;19.25;16.75;;;;;-143.91;100.00;62633.25;6127253;22;12859;-76
2021/01/19 01:42:25;;;;;;;;;15.00;14.25;;;;;-143.91;100.00;62633.25;6116877;22;19066;-76
2021/01/19 01:44:52;;;;;;;;;20.25;17.50;;;;;-143.91;100.00;62633.25;6121557;22;12717;-76
2021/01/19 01:47:23;;;;;;;;;21.50;14.50;;;;;-143.91;100.00;62633.25;6123080;22;13301;-76
2021/01/19 01:49:51;;;;;;;;;17.75;15.00;;;;;-143.91;100.00;62633.25;6118351;22;14476;-76
2021/01/19 01:52:19;;;;;;;;;24.50;18.00;;;;;-143.91;100.00;62633.25;6094399;22;13375;-76
2021/01/19 01:54:46;;;;;;;;;13.75;13.00;;;;;-143.91;100.00;62633.25;6120665;22;12789;-76
2021/01/19 01:57:13;;;;;;;;;20.00;13.75;;;;;-143.91;100.00;62633.25;6120587;23;13603;-76
2021/01/19 01:59:40;;;;;;;;;20.25;14.75;;;;;-143.91;100.00;62633.25;6194228;22;13628;-76
2021/01/19 02:02:12;;;;;;;;;16.75;13.50;;;;;-143.91;100.00;62633.25;6212495;22;12933;-76
2021/01/19 02:04:39;;;;;;;;;14.00;13.00;;;;;-143.91;100.00;62633.25;6176721;22;12783;-76
2021/01/19 02:07:40;;;;;;;;;16.00;13.00;;;;;-143.91;100.00;62633.25;6215081;22;13410;-76
2021/01/19 02:10:32;;;;;;;;;15.00;11.25;;;;;-143.91;100.00;62633.25;6049606;22;14225;-77
2021/01/19 02:13:35;;;;;;;;;16.50;15.00;;;;;-143.91;100.00;62633.25;6066745;22;17322;-77
2021/01/19 02:16:30;;;;;;;;;14.25;12.00;;;;;-143.91;100.00;62633.25;6037265;22;15793;-76
2021/01/19 02:19:27;;;;;;;;;13.75;13.00;;;;;-143.91;100.00;62633.25;6093897;22;15991;-76
2021/01/19 02:22:31;;;;;;;;;15.00;13.00;;;;;-143.91;100.00;62633.25;6033134;22;15606;-76
2021/01/19 02:25:17;;;;;;;;;11.75;11.00;;;;;-143.91;100.00;62633.25;6029824;22;16912;-76
2021/01/19 02:28:10;;;;;;;;;17.50;13.50;;;;;-143.91;100.00;62633.25;6021672;22;18646;-76
2021/01/19 02:30:43;;;;;;;;;14.75;10.75;;;;;-143.91;100.00;62633.25;6000875;22;16152;-76
2021/01/19 02:33:15;;;;;;;;;13.25;11.00;;;;;-143.91;100.00;62633.25;6110274;22;13148;-76
2021/01/19 02:35:49;;;;;;;;;15.00;12.25;;;;;-143.91;100.00;62633.25;6118762;22;12739;-76
2021/01/19 02:38:22;;;;;;;;;15.50;13.00;;;;;-143.91;100.00;62633.25;6112005;22;12659;-76
2021/01/19 02:40:49;;;;;;;;;11.75;10.00;;;;;-143.91;100.00;62633.25;6156045;22;12920;-76
2021/01/19 02:43:23;;;;;;;;;14.50;12.25;;;;;-143.91;100.00;62633.25;6183848;22;12908;-76
2021/01/19 02:45:50;;;;;;;;;13.25;12.00;;;;;-143.91;100.00;62633.25;6213073;22;15002;-76
2021/01/19 02:48:16;;;;;;;;;12.00;11.00;;;;;-143.91;100.00;62633.25;6207700;22;13449;-76
2021/01/19 02:50:43;;;;;;;;;14.50;11.00;;;;;-143.91;100.00;62633.25;6085688;22;12596;-76
2021/01/19 02:53:10;;;;;;;;;15.75;12.00;;;;;-143.91;100.00;62633.25;6220481;22;13511;-76
2021/01/19 02:55:39;;;;;;;;;11.75;10.75;;;;;-143.91;100.00;62633.25;6188996;22;14503;-76
2021/01/19 02:58:44;;;;;;;;;10.50;9.50;;;;;-143.91;100.00;62633.25;6090297;22;12333;-76
2021/01/19 03:01:19;;;;;;;;;10.00;10.00;;;;;-143.91;100.00;62633.25;6006154;22;15955;-76
2021/01/19 03:03:45;;;;;;;;;10.50;9.25;;;;;-143.91;100.00;62633.25;6094598;22;12416;-76
2021/01/19 03:06:17;;;;;;;;;13.00;12.00;;;;;-143.91;100.00;62633.25;6085382;22;12954;-76
2021/01/19 03:08:44;;;;;;;;;11.50;10.75;;;;;-143.91;100.00;62633.25;6218415;22;12413;-76
2021/01/19 03:11:16;;;;;;;;;15.25;12.50;;;;;-143.91;100.00;62633.25;6094105;22;13531;-76
2021/01/19 03:13:46;;;;;;;;;11.00;8.50;;;;;-143.91;100.00;62633.25;6092948;22;13386;-76
2021/01/19 03:16:15;;;;;;;;;11.50;10.25;;;;;-143.91;100.00;62633.25;6095174;22;13241;-76
2021/01/19 03:18:43;;;;;;;;;11.00;9.50;;;;;-143.91;100.00;62633.25;6084486;22;13421;-76
2021/01/19 03:21:09;;;;;;;;;12.75;10.25;;;;;-143.91;100.00;62633.25;6087641;22;13077;-76
2021/01/19 03:23:37;;;;;;;;;13.50;10.75;;;;;-143.91;100.00;62633.25;6090944;22;13037;-76
2021/01/19 03:26:04;;;;;;;;;17.25;12.00;;;;;-143.91;100.00;62633.25;6096464;22;13215;-76
2021/01/19 03:28:33;;;;;;;;;12.25;10.00;;;;;-143.91;100.00;62633.25;6221391;22;12171;-76
2021/01/19 03:31:01;;;;;;;;;9.50;9.50;;;;;-143.91;100.00;62633.25;6090683;22;15731;-76
2021/01/19 03:33:28;;;;;;;;;12.25;10.75;;;;;-143.91;100.00;62633.25;6091513;22;13258;-76
2021/01/19 03:35:55;;;;;;;;;9.50;8.25;;;;;-143.91;100.00;62633.25;6093505;22;13611;-76
2021/01/19 03:38:22;;;;;;;;;10.75;10.00;;;;;-143.91;100.00;62633.25;6092661;22;12900;-76
2021/01/19 03:40:49;;;;;;;;;13.75;10.00;;;;;-143.91;100.00;62633.25;6092831;22;12804;-76
2021/01/19 03:43:15;;;;;;;;;13.75;13.00;;;;;-143.91;100.00;62633.25;6092274;22;13576;-76
2021/01/19 03:45:42;;;;;;;;;10.50;9.00;;;;;-143.91;100.00;62633.25;6093171;22;12714;-76
2021/01/19 03:48:09;;;;;;;;;10.25;9.25;;;;;-143.91;100.00;62633.25;6096825;22;14183;-76
2021/01/19 03:50:36;;;;;;;;;11.00;9.50;;;;;-143.91;100.00;62633.25;6090301;22;12777;-76
2021/01/19 03:53:03;;;;;;;;;9.75;7.75;;;;;-143.91;100.00;62633.25;6095454;22;12185;-76
2021/01/19 03:55:30;;;;;;;;;10.00;8.50;;;;;-143.91;100.00;62633.25;6088273;22;17184;-76
2021/01/19 03:58:00;;;;;;;;;11.50;8.75;;;;;-143.91;100.00;62633.25;6093527;22;13503;-76
2021/01/19 04:00:30;;;;;;;;;9.25;8.25;;;;;-143.91;100.00;62633.25;6082888;23;17814;-76
2021/01/19 04:02:57;;;;;;;;;10.25;9.00;;;;;-143.91;100.00;62633.25;6090779;23;12712;-76
2021/01/19 04:05:23;;;;;;;;;9.25;7.50;;;;;-143.91;100.00;62633.25;6091965;22;13086;-76
2021/01/19 04:07:51;;;;;;;;;9.25;6.50;;;;;-143.91;100.00;62633.25;6090972;22;12620;-76
2021/01/19 04:10:18;;;;;;;;;10.25;8.50;;;;;-143.91;100.00;62633.25;6081013;22;13463;-76
2021/01/19 04:12:46;;;;;;;;;9.00;6.50;;;;;-143.91;100.00;62633.25;6091036;22;13054;-76
2021/01/19 04:15:13;;;;;;;;;8.75;8.75;;;;;-143.91;100.00;62633.25;6223401;22;12997;-76
2021/01/19 04:17:39;;;;;;;;;10.25;8.00;;;;;-143.91;100.00;62633.25;6095740;22;13018;-76
2021/01/19 04:20:07;;;;;;;;;10.00;7.25;;;;;-143.91;100.00;62633.25;6218991;22;12854;-77
2021/01/19 04:22:34;;;;;;;;;10.50;6.00;;;;;-143.91;100.00;62633.25;6168131;22;13119;-76
2021/01/19 04:25:01;;;;;;;;;9.75;8.00;;;;;-143.91;100.00;62633.25;6093349;22;13763;-77
2021/01/19 04:27:28;;;;;;;;;9.25;6.00;;;;;-143.91;100.00;62633.25;6094211;22;12664;-76
2021/01/19 04:29:54;;;;;;;;;7.25;6.25;;;;;-143.91;100.00;62633.25;6096866;22;12671;-77
2021/01/19 04:32:21;;;;;;;;;10.00;9.00;;;;;-143.91;100.00;62633.25;6096599;22;12978;-76
2021/01/19 04:34:48;;;;;;;;;10.00;8.75;;;;;-143.91;100.00;62633.25;6217147;22;13088;-76
2021/01/19 04:37:15;;;;;;;;;7.25;6.00;;;;;-143.91;100.00;62633.25;6096804;22;13063;-76
2021/01/19 04:39:42;;;;;;;;;8.75;6.00;;;;;-143.91;100.00;62633.25;6094057;22;12942;-76
2021/01/19 04:42:09;;;;;;;;;8.75;7.25;;;;;-143.91;100.00;62633.25;6092203;22;12736;-76
2021/01/19 04:44:35;;;;;;;;;7.50;7.00;;;;;-143.91;100.00;62633.25;6094702;22;12869;-76
2021/01/19 04:47:02;;;;;;;;;10.50;6.00;;;;;-143.91;100.00;62633.25;6171156;22;12967;-77
2021/01/19 04:49:29;;;;;;;;;8.00;7.25;;;;;-143.91;100.00;62633.25;6211755;22;14316;-76
2021/01/19 04:51:57;;;;;;;;;8.00;6.00;;;;;-143.91;100.00;62633.25;6188502;22;12739;-76
2021/01/19 04:54:25;;;;;;;;;6.50;6.00;;;;;-143.91;100.00;62633.25;6091991;22;13115;-76
2021/01/19 04:56:55;;;;;;;;;6.50;6.25;;;;;-143.91;100.00;62633.25;6089037;22;13047;-76
2021/01/19 04:59:25;;;;;;;;;8.75;8.00;;;;;-143.91;100.00;62633.25;6094349;23;13332;-76
2021/01/19 05:01:54;;;;;;;;;6.75;5.75;;;;;-143.91;100.00;62633.25;6095375;22;12950;-76
2021/01/19 05:04:27;;;;;;;;;6.00;6.00;;;;;-143.91;100.00;62633.25;6092556;22;13601;-76
2021/01/19 05:07:12;;;;;;;;;5.75;5.75;;;;;-143.91;100.00;62633.25;6093900;22;13364;-76
2021/01/19 05:09:43;;;;;;;;;8.75;8.75;;;;;-143.91;100.00;62633.25;6092764;22;18424;-76
2021/01/19 05:12:10;;;;;;;;;7.50;6.25;;;;;-143.91;100.00;62633.25;6191456;22;12882;-76
2021/01/19 05:14:38;;;;;;;;;7.25;5.00;;;;;-143.91;100.00;62633.25;6193584;22;12818;-76
2021/01/19 05:17:05;;;;;;;;;7.25;5.50;;;;;-143.91;100.00;62633.25;6224562;22;13083;-76
2021/01/19 05:19:32;;;;;;;;;7.75;6.00;;;;;-143.91;100.00;62633.25;6095754;22;13196;-76
2021/01/19 05:21:59;;;;;;;;;9.00;8.50;;;;;-143.91;100.00;62633.25;6094347;22;13769;-76
2021/01/19 05:24:25;;;;;;;;;9.25;6.00;;;;;-143.91;100.00;62633.25;6100691;22;13446;-76
2021/01/19 05:26:52;;;;;;;;;4.00;4.00;;;;;-143.91;100.00;62633.25;6089968;22;13355;-76
2021/01/19 05:29:20;;;;;;;;;6.00;5.00;;;;;-143.91;100.00;62633.25;6092158;22;13307;-76
2021/01/19 05:31:52;;;;;;;;;6.75;6.00;;;;;-143.91;100.00;62633.25;6097318;22;13128;-76
2021/01/19 05:34:19;;;;;;;;;6.25;5.25;;;;;-143.91;100.00;62633.25;6092760;22;14638;-76
2021/01/19 05:36:47;;;;;;;;;6.25;6.00;;;;;-143.91;100.00;62633.25;6096553;22;13802;-76
2021/01/19 05:39:21;;;;;;;;;5.00;4.75;;;;;-143.91;100.00;62633.25;6098055;23;12676;-76
2021/01/19 05:41:52;;;;;;;;;8.75;6.25;;;;;-143.91;100.00;62633.25;6220586;22;12959;-76
2021/01/19 05:44:33;;;;;;;;;6.25;6.25;;;;;-143.91;100.00;62633.25;6224913;22;14891;-76
2021/01/19 05:47:05;;;;;;;;;8.50;7.00;;;;;-143.91;100.00;62633.25;6096013;23;18393;-76
2021/01/19 05:49:33;;;;;;;;;8.75;8.75;;;;;-143.91;100.00;62633.25;6211093;22;17339;-76
2021/01/19 05:52:03;;;;;;;;;9.00;7.00;;;;;-143.91;100.00;62633.25;6095356;22;13260;-76
2021/01/19 05:54:39;;;;;;;;;8.25;6.75;;;;;-143.91;100.00;62633.25;6097971;23;16977;-76
2021/01/19 05:57:14;;;;;;;;;10.50;8.50;;;;;-143.91;100.00;62633.25;6223195;22;15772;-76
2021/01/19 05:59:49;;;;;;;;;6.25;5.00;;;;;-143.91;100.00;62633.25;6213294;22;12969;-76
2021/01/19 06:02:17;;;;;;;;;7.25;6.00;;;;;-143.91;100.00;62633.25;6096757;23;13464;-76
2021/01/19 06:04:51;;;;;;;;;5.00;5.00;;;;;-143.91;100.00;62633.25;6088947;23;13256;-77
2021/01/19 06:07:21;;;;;;;;;5.00;4.75;;;;;-143.91;100.00;62633.25;6213656;22;13933;-76
2021/01/19 06:09:48;;;;;;;;;8.00;6.75;;;;;-143.91;100.00;62633.25;6096104;23;13391;-76
2021/01/19 06:12:15;;;;;;;;;10.00;6.00;;;;;-143.91;100.00;62633.25;6181979;22;13400;-76
2021/01/19 06:14:53;;;;;;;;;6.00;5.50;;;;;-143.91;100.00;62633.25;6213391;22;12771;-76
2021/01/19 06:17:21;;;;;;;;;9.25;7.75;;;;;-143.91;100.00;62633.25;6094851;23;12895;-76
2021/01/19 06:19:52;;;;;;;;;7.00;7.00;;;;;-143.91;100.00;62633.25;6086706;22;13455;-76
2021/01/19 06:22:21;;;;;;;;;5.00;4.00;;;;;-143.91;100.00;62633.25;6094700;22;12895;-76
2021/01/19 06:24:49;;;;;;;;;6.50;5.75;;;;;-143.91;100.00;62633.25;6199114;22;12825;-76
2021/01/19 06:27:24;;;;;;;;;7.50;6.00;;;;;-143.91;100.00;62633.25;6222130;22;13359;-76
2021/01/19 06:29:58;;;;;;;;;6.00;6.00;;;;;-143.91;100.00;62633.25;6095751;22;13221;-76
2021/01/19 06:32:25;;;;;;;;;5.00;4.75;;;;;-143.91;100.00;62633.25;6097416;22;13416;-76
2021/01/19 06:34:52;;;;;;;;;5.00;4.00;;;;;-143.91;100.00;62633.25;6096007;22;14752;-76
2021/01/19 06:37:26;;;;;;;;;8.25;6.00;;;;;-143.91;100.00;62633.25;6096223;22;13005;-76
2021/01/19 06:39:56;;;;;;;;;7.25;5.00;;;;;-143.91;100.00;62633.25;6094484;22;13473;-76
2021/01/19 06:42:27;;;;;;;;;7.75;5.50;;;;;-143.91;100.00;62633.25;6228983;22;13501;-76
2021/01/19 06:44:56;;;;;;;;;4.00;4.00;;;;;-143.91;100.00;62633.25;6093499;22;13794;-76
2021/01/19 06:47:22;;;;;;;;;5.00;4.75;;;;;-143.91;100.00;62633.25;6097516;22;13446;-76
2021/01/19 06:49:56;;;;;;;;;5.75;5.00;;;;;-143.91;100.00;62633.25;6094665;23;12571;-76
2021/01/19 06:52:23;;;;;;;;;7.00;5.00;;;;;-143.91;100.00;62633.25;6099144;22;12795;-77
2021/01/19 06:55:05;;;;;;;;;5.75;4.00;;;;;-143.91;100.00;62633.25;6094753;22;12707;-76
2021/01/19 06:57:56;;;;;;;;;5.00;4.50;;;;;-143.91;100.00;62633.25;6214568;22;16197;-76
2021/01/19 07:00:24;;;;;;;;;4.00;3.75;;;;;-143.91;100.00;62633.25;5990091;22;15949;-76
2021/01/19 07:02:52;;;;;;;;;4.00;3.75;;;;;-143.91;100.00;62633.25;6101789;22;13402;-76
2021/01/19 07:05:22;;;;;;;;;5.00;4.25;;;;;-143.91;100.00;62633.25;6224709;22;12820;-76
2021/01/19 07:08:20;;;;;;;;;4.00;4.00;;;;;-143.91;100.00;62633.25;6095069;22;12811;-76
2021/01/19 07:10:50;;;;;;;;;5.50;5.50;;;;;-143.91;100.00;62633.25;5993649;22;16125;-76
2021/01/19 07:13:24;;;;;;;;;5.00;4.25;;;;;-143.91;100.00;62633.25;6223549;22;13652;-76
2021/01/19 07:16:06;;;;;;;;;5.75;5.50;;;;;-143.91;100.00;62633.25;6094682;22;13893;-76
2021/01/19 07:18:41;;;;;;;;;2.00;2.00;;;;;-143.91;100.00;62633.25;6095599;23;15869;-76
2021/01/19 07:21:10;;;;;;;;;5.25;5.00;;;;;-143.91;100.00;62633.25;6096923;22;18350;-76
2021/01/19 07:23:46;;;;;;;;;5.50;5.00;;;;;-143.91;100.00;62633.25;6095515;22;13773;-76
2021/01/19 07:26:12;;;;;;;;;5.00;4.50;;;;;-143.91;100.00;62633.25;6100707;22;15148;-76
2021/01/19 07:28:39;;;;;;;;;5.50;4.50;;;;;-143.91;100.00;62633.25;6091708;22;13590;-76
2021/01/19 07:31:06;;;;;;;;;5.00;4.00;;;;;-143.91;100.00;62633.25;6097876;22;12921;-76
2021/01/19 07:33:33;;;;;;;;;6.00;4.50;;;;;-143.91;100.00;62633.25;6101019;23;12767;-76
2021/01/19 07:36:00;;;;;;;;;4.00;4.00;;;;;-143.91;100.00;62633.25;6199016;22;13128;-76
2021/01/19 07:38:27;;;;;;;;;5.75;4.25;;;;;-143.91;100.00;62633.25;6099161;22;13196;-76
2021/01/19 07:40:55;;;;;;;;;5.50;5.25;;;;;-143.91;100.00;62633.25;6095493;22;13095;-76
2021/01/19 07:43:21;;;;;;;;;4.75;3.25;;;;;-143.91;100.00;62633.25;6100144;22;12914;-76
2021/01/19 07:45:55;;;;;;;;;5.75;4.00;;;;;-143.91;100.00;62633.25;6096078;22;13460;-76
2021/01/19 07:48:58;;;;;;;;;7.25;6.00;;;;;-143.91;100.00;62633.25;6108768;22;12826;-76
2021/01/19 07:51:25;;;;;;;;;5.50;4.75;;;;;-143.91;100.00;62633.25;5949530;22;18172;-76
2021/01/19 07:53:53;;;;;;;;;5.75;4.00;;;;;-143.91;100.00;62633.25;6100331;22;12352;-76
2021/01/19 07:56:24;;;;;;;;;4.00;4.00;;;;;-143.91;100.00;62633.25;6199504;22;12928;-76
2021/01/19 07:58:51;;;;;;;;;9.00;4.50;;;;;-143.91;100.00;62633.25;6127008;22;12822;-76
2021/01/19 08:01:28;;;;;;;;;5.75;4.75;;;;;-143.91;100.00;62633.25;6130205;22;13223;-77
2021/01/19 08:03:55;;;;;;;;;5.50;5.00;;;;;-143.91;100.00;62633.25;6128473;22;12908;-76
2021/01/19 08:06:31;;;;;;;;;5.25;5.25;;;;;-143.91;100.00;62633.25;6230607;22;13116;-76
2021/01/19 08:09:14;;;;;;;;;8.25;4.50;;;;;-143.91;100.00;62633.25;6130826;22;12761;-76
2021/01/19 08:11:43;;;;;;;;;5.75;4.00;;;;;-143.91;100.00;62633.25;6121314;22;16540;-76
2021/01/19 08:14:14;;;;;;;;;9.00;4.75;;;;;-143.91;100.00;62633.25;6228176;22;12957;-76
2021/01/19 08:16:48;;;;;;;;;7.00;5.00;;;;;-143.91;100.00;62633.25;6232519;22;12701;-76
2021/01/19 08:19:15;;;;;;;;;5.00;3.25;;;;;-143.91;100.00;62633.25;6128962;22;12658;-76
2021/01/19 08:21:51;;;;;;;;;5.75;5.00;;;;;-143.91;100.00;62633.25;6128157;22;12817;-76
2021/01/19 08:24:21;;;;;;;;;5.00;4.00;;;;;-143.91;100.00;62633.25;6129476;22;13646;-76
2021/01/19 08:26:48;;;;;;;;;4.50;4.50;;;;;-143.91;100.00;62633.25;6127181;22;12852;-76
2021/01/19 08:29:28;;;;;;;;;6.25;5.25;;;;;-143.91;100.00;62633.25;6124020;22;13710;-76
2021/01/19 08:31:59;;;;;;;;;3.75;3.00;;;;;-143.91;100.00;62633.25;6125185;22;13805;-76
2021/01/19 08:34:28;;;;;;;;;4.00;3.50;;;;;-143.91;100.00;62633.25;6126093;22;13031;-76
2021/01/19 08:36:55;;;;;;;;;6.00;5.25;;;;;-143.91;100.00;62633.25;6099445;22;13249;-76
2021/01/19 08:39:23;;;;;;;;;5.25;4.00;;;;;-143.91;100.00;62633.25;6204349;22;12721;-77
2021/01/19 08:41:51;;;;;;;;;5.75;5.25;;;;;-143.91;100.00;62633.25;6130509;22;12801;-76
2021/01/19 08:44:34;;;;;;;;;5.75;4.00;;;;;-143.91;100.00;62633.25;6126353;22;13450;-76
2021/01/19 08:47:00;;;;;;;;;4.00;4.00;;;;;-143.91;100.00;62633.25;6127168;22;12759;-77
2021/01/19 08:49:33;;;;;;;;;5.00;5.00;;;;;-143.91;100.00;62633.25;6129945;22;12404;-76
2021/01/19 08:52:00;;;;;;;;;6.00;4.75;;;;;-143.91;100.00;62633.25;6227560;22;13460;-76
2021/01/19 08:54:30;;;;;;;;;8.50;5.00;;;;;-143.91;100.00;62633.25;6130676;22;13161;-76
2021/01/19 08:56:57;;;;;;;;;5.25;4.00;;;;;-143.91;100.00;62633.25;6128703;22;12712;-76
2021/01/19 08:59:38;;;;;;;;;4.00;3.25;;;;;-143.91;100.00;62633.25;6122240;22;15895;-76
2021/01/19 09:02:04;;;;;;;;;4.25;3.75;;;;;-143.91;100.00;62633.25;6124796;22;13140;-76
2021/01/19 09:04:31;;;;;;;;;6.00;4.25;;;;;-143.91;100.00;62633.25;6125990;22;12721;-76
2021/01/19 09:07:08;;;;;;;;;6.50;5.00;;;;;-143.91;100.00;62633.25;6129868;22;13148;-77
2021/01/19 09:09:35;;;;;;;;;4.75;4.75;;;;;-143.91;100.00;62633.25;6124732;22;18519;-76
2021/01/19 09:12:01;;;;;;;;;4.75;4.00;;;;;-143.91;100.00;62633.25;6127937;22;13413;-77
2021/01/19 09:14:29;;;;;;;;;2.00;2.00;;;;;-143.91;100.00;62633.25;6104834;22;13164;-76
2021/01/19 09:16:56;;;;;;;;;4.75;4.25;;;;;-143.91;100.00;62633.25;6102456;22;12938;-77
2021/01/19 09:19:23;;;;;;;;;5.25;3.75;;;;;-143.91;100.00;62633.25;6129019;22;12181;-76
2021/01/19 09:21:50;;;;;;;;;8.00;5.50;;;;;-143.91;100.00;62633.25;6096400;22;12508;-76
2021/01/19 09:24:21;;;;;;;;;5.75;3.75;;;;;-143.91;100.00;62633.25;6100719;22;12881;-76
2021/01/19 09:27:00;;;;;;;;;5.75;4.00;;;;;-143.91;100.00;62633.25;6121435;22;12798;-76
2021/01/19 09:29:28;;;;;;;;;5.00;4.00;;;;;-143.91;100.00;62633.25;6099085;22;14121;-76
2021/01/19 09:31:57;;;;;;;;;6.00;5.00;;;;;-143.91;100.00;62633.25;6079597;22;13477;-76
2021/01/19 09:34:24;;;;;;;;;5.25;3.25;;;;;-143.91;100.00;62633.25;6096043;22;13157;-76
2021/01/19 09:36:51;;;;;;;;;4.00;4.00;;;;;-143.91;100.00;62633.25;6200914;22;13149;-76
2021/01/19 09:39:30;;;;;;;;;5.00;4.75;;;;;-143.91;100.00;62633.25;6128296;22;12825;-77
2021/01/19 09:41:58;;;;;;;;;5.00;4.75;;;;;-143.91;100.00;62633.25;6090721;22;13116;-77
2021/01/19 09:44:25;;;;;;;;;5.00;4.75;;;;;-143.91;100.00;62633.25;6127033;22;12817;-77
2021/01/19 09:46:53;;;;;;;;;4.00;4.00;;;;;-143.91;100.00;62633.25;6127927;22;13588;-77
2021/01/19 09:49:21;;;;;;;;;8.00;5.00;;;;;-143.91;100.00;62633.25;6098084;22;13440;-76
2021/01/19 09:51:48;;;;;;;;;4.75;4.75;;;;;-143.91;100.00;62633.25;6228399;22;13449;-77
2021/01/19 09:54:21;;;;;;;;;5.50;5.50;;;;;-143.91;100.00;62633.25;6133349;22;12876;-77
2021/01/19 09:56:57;;;;;;;;;8.50;5.75;;;;;-143.91;100.00;62633.25;6230042;22;12829;-76
2021/01/19 09:59:25;;;;;;;;;4.00;4.00;;;;;-143.91;100.00;62633.25;6225978;22;12805;-77
2021/01/19 10:01:54;;;;;;;;;4.50;4.50;;;;;-143.91;100.00;62633.25;6127407;22;12031;-76
2021/01/19 10:04:21;;;;;;;;;6.25;5.00;;;;;-143.91;100.00;62633.25;6131644;22;12954;-76
2021/01/19 10:06:48;;;;;;;;;6.00;5.25;;;;;-143.91;100.00;62633.25;6094732;22;15492;-77
2021/01/19 10:09:23;;;;;;;;;9.00;6.00;;;;;-143.91;100.00;62633.25;6103435;22;13531;-77
2021/01/19 10:12:17;;;;;;;;;9.75;7.00;;;;;-143.91;100.00;62633.25;6122551;22;13397;-76
2021/01/19 10:14:44;;;;;;;;;6.75;5.50;;;;;-143.91;100.00;62633.25;5957029;22;13412;-77
2021/01/19 10:17:32;;;;;;;;;5.25;5.00;;;;;-143.91;100.00;62633.25;6125524;22;13361;-77
2021/01/19 10:20:15;;;;;;;;;8.00;6.00;;;;;-143.91;100.00;62633.25;6122240;22;12676;-77
2021/01/19 10:22:43;;;;;;;;;8.00;5.00;;;;;-143.91;100.00;62633.25;6188461;22;15989;-77
2021/01/19 10:25:44;;;;;;;;;9.25;5.25;;;;;-143.91;100.00;62633.25;6129218;22;12699;-76
2021/01/19 10:28:10;;;;;;;;;5.50;4.25;;;;;-143.91;100.00;62633.25;6227108;22;19420;-76
2021/01/19 10:30:42;;;;;;;;;8.25;6.00;;;;;-143.91;100.00;62633.25;6238944;22;13376;-77
2021/01/19 10:33:09;;;;;;;;;8.25;6.00;;;;;-143.91;100.00;62633.25;6127270;22;15865;-77
2021/01/19 10:35:39;;;;;;;;;4.00;4.00;;;;;-143.91;100.00;62633.25;6231280;22;14121;-77
2021/01/19 10:38:07;;;;;;;;;5.00;4.50;;;;;-143.91;100.00;62633.25;6098586;22;13254;-76
2021/01/19 10:40:35;;;;;;;;;9.25;8.00;;;;;-143.91;100.00;62633.25;6124302;22;17987;-77
2021/01/19 10:43:07;;;;;;;;;8.00;6.00;;;;;-143.91;100.00;62633.25;6122697;22;12330;-77
2021/01/19 10:45:34;;;;;;;;;5.50;5.00;;;;;-143.91;100.00;62633.25;6119600;22;15307;-77
2021/01/19 10:48:01;;;;;;;;;5.00;5.00;;;;;-143.91;100.00;62633.25;6127302;22;13132;-76
2021/01/19 10:50:30;;;;;;;;;6.50;6.00;;;;;-143.91;100.00;62633.25;6117356;22;12666;-76
2021/01/19 10:53:01;;;;;;;;;8.50;5.00;;;;;-143.91;100.00;62633.25;6232002;22;12697;-76
2021/01/19 10:55:32;;;;;;;;;5.00;5.00;;;;;-143.91;100.00;62633.25;6123002;22;13498;-77
2021/01/19 10:58:00;;;;;;;;;7.75;5.00;;;;;-143.91;100.00;62633.25;6124434;22;13215;-77
2021/01/19 11:00:27;;;;;;;;;6.50;5.00;;;;;-143.91;100.00;62633.25;6128457;22;12692;-77
2021/01/19 11:02:54;;;;;;;;;6.00;5.25;;;;;-143.91;100.00;62633.25;6132919;22;12772;-76
2021/01/19 11:05:21;;;;;;;;;9.75;7.50;;;;;-143.91;100.00;62633.25;6129410;22;13368;-77
2021/01/19 11:07:49;;;;;;;;;8.75;7.75;;;;;-143.91;100.00;62633.25;6205469;22;14524;-77
2021/01/19 11:10:19;;;;;;;;;5.50;4.50;;;;;-143.91;100.00;62633.25;6128103;22;13370;-77
2021/01/19 11:12:45;;;;;;;;;7.50;6.00;;;;;-143.91;100.00;62633.25;6127335;22;12674;-77
2021/01/19 11:15:12;;;;;;;;;6.25;5.50;;;;;-143.91;100.00;62633.25;6130389;22;13179;-77
2021/01/19 11:17:39;;;;;;;;;7.25;4.75;;;;;-143.91;100.00;62633.25;6131621;22;13655;-77
2021/01/19 11:20:10;;;;;;;;;8.50;5.50;;;;;-143.91;100.00;62633.25;6104067;22;13122;-77